Time;durP1;ratioP1;P1;durP2;ratioP2;P2;SDS_P1;SDS_P2;PMS_P1;PMS_P2;Temp;Humidity;BMP_temperature;BMP_pressure;BME280_temperature;BME280_humidity;BME280_pressure;Samples;Min_cycle;Max_cycle;Signal;HPM_P1;HPM_P2
2023/09/14 00:02:59;;;;;;;4.43;3.97;;;;;;;17.37;100.00;97787.78;6220749;28;20339;-58
2023/09/14 00:06:03;;;;;;;5.53;4.80;;;;;;;17.38;100.00;97773.22;6221605;28;20232;-58
2023/09/14 00:09:05;;;;;;;4.70;4.30;;;;;;;17.33;100.00;97780.53;6202342;28;20665;-59
2023/09/14 00:12:08;;;;;;;4.67;4.27;;;;;;;17.40;100.00;97784.53;6226045;28;20739;-59
2023/09/14 00:15:10;;;;;;;5.30;4.80;;;;;;;17.45;100.00;97789.84;6218120;28;20309;-59
2023/09/14 00:18:12;;;;;;;5.30;4.80;;;;;;;17.46;100.00;97777.19;6217587;28;20317;-58
2023/09/14 00:21:14;;;;;;;5.63;4.60;;;;;;;17.37;100.00;97774.31;6220624;28;20211;-58
2023/09/14 00:24:17;;;;;;;6.50;4.77;;;;;;;17.41;100.00;97778.03;6219249;28;20581;-59
2023/09/14 00:27:19;;;;;;;5.73;4.67;;;;;;;17.35;100.00;97760.34;6200427;28;20208;-59
2023/09/14 00:30:24;;;;;;;5.77;4.90;;;;;;;17.57;100.00;97794.06;6220999;28;20221;-59
2023/09/14 00:33:27;;;;;;;5.33;4.83;;;;;;;17.62;100.00;97783.22;6220404;28;20228;-58
2023/09/14 00:36:30;;;;;;;5.13;4.53;;;;;;;17.69;100.00;97772.94;6216610;28;20265;-59
2023/09/14 00:39:32;;;;;;;4.63;4.23;;;;;;;17.66;100.00;97785.06;6218276;28;20255;-59
2023/09/14 00:42:47;;;;;;;7.73;4.50;;;;;;;17.71;100.00;97778.84;6227304;28;20240;-59
2023/09/14 00:45:51;;;;;;;7.23;4.40;;;;;;;17.69;100.00;97789.09;6218996;28;20228;-59
2023/09/14 00:48:56;;;;;;;5.53;4.63;;;;;;;17.66;100.00;97787.75;6218319;28;20367;-59
2023/09/14 00:51:59;;;;;;;5.00;4.60;;;;;;;17.74;100.00;97773.72;6221137;28;20672;-58
2023/09/14 00:55:06;;;;;;;4.53;4.13;;;;;;;17.77;100.00;97788.50;6213590;28;20250;-58
2023/09/14 00:58:14;;;;;;;4.73;4.30;;;;;;;17.76;100.00;97779.59;6226081;28;20236;-60
2023/09/14 01:01:17;;;;;;;4.97;4.43;;;;;;;17.79;100.00;97794.41;6197907;28;20319;-59
2023/09/14 01:04:19;;;;;;;4.87;4.20;;;;;;;17.72;100.00;97793.91;6219874;28;20232;-58
2023/09/14 01:07:22;;;;;;;4.60;4.17;;;;;;;17.78;100.00;97795.47;6199857;28;20239;-57
2023/09/14 01:10:24;;;;;;;4.53;3.70;;;;;;;17.86;100.00;97789.47;6217475;28;20239;-57
2023/09/14 01:14:00;;;;;;;4.97;4.20;;;;;;;17.87;100.00;97795.66;6216424;28;20737;-58
2023/09/14 01:17:13;;;;;;;4.43;4.03;;;;;;;17.84;100.00;97793.56;6213828;28;20224;-59
2023/09/14 01:20:36;;;;;;;6.23;4.27;;;;;;;17.73;100.00;97809.84;6214342;28;20322;-59
2023/09/14 01:23:51;;;;;;;4.73;4.33;;;;;;;17.71;100.00;97809.28;6215014;28;20239;-59
2023/09/14 01:26:53;;;;;;;4.87;4.47;;;;;;;17.64;100.00;97808.00;6217975;28;20736;-58
2023/09/14 01:29:57;;;;;;;4.60;4.20;;;;;;;17.46;100.00;97783.38;6232334;28;20254;-58
2023/09/14 01:33:00;;;;;;;5.17;4.67;;;;;;;17.54;100.00;97804.31;6196327;28;20232;-58
2023/09/14 01:36:36;;;;;;;5.67;4.40;;;;;;;17.62;100.00;97812.88;6198893;28;20239;-59
2023/09/14 01:39:39;;;;;;;4.57;4.17;;;;;;;17.55;100.00;97815.91;6216233;28;20241;-59
2023/09/14 01:42:42;;;;;;;6.37;4.40;;;;;;;17.47;100.00;97811.91;6218023;28;20236;-58
2023/09/14 01:45:45;;;;;;;5.83;4.87;;;;;;;17.41;100.00;97817.63;6218235;28;20232;-59
2023/09/14 01:48:47;;;;;;;4.93;4.43;;;;;;;17.44;100.00;97814.38;6216396;28;20240;-59
2023/09/14 01:51:51;;;;;;;4.83;4.43;;;;;;;17.46;100.00;97818.41;6199125;28;20252;-59
2023/09/14 01:54:54;;;;;;;6.10;4.63;;;;;;;17.36;100.00;97798.84;6217725;28;20319;-59
2023/09/14 01:57:56;;;;;;;6.90;4.83;;;;;;;17.41;100.00;97815.75;6218132;28;20231;-58
2023/09/14 02:00:58;;;;;;;4.90;3.80;;;;;;;17.40;100.00;97810.66;6179350;28;20291;-59
2023/09/14 02:04:00;;;;;;;5.43;4.53;;;;;;;17.49;100.00;97815.16;6199161;28;20273;-58
2023/09/14 02:07:03;;;;;;;4.87;4.47;;;;;;;17.42;100.00;97819.25;6182955;28;20232;-59
2023/09/14 02:10:11;;;;;;;4.77;4.27;;;;;;;17.46;100.00;97820.28;6213149;28;20240;-58
2023/09/14 02:13:13;;;;;;;4.87;4.47;;;;;;;17.39;100.00;97823.31;6216522;28;20714;-58
2023/09/14 02:16:16;;;;;;;5.10;4.20;;;;;;;17.39;100.00;97827.88;6200187;28;20231;-59
2023/09/14 02:19:18;;;;;;;6.63;4.23;;;;;;;17.37;100.00;97827.38;6213881;28;20790;-58
2023/09/14 02:22:20;;;;;;;5.20;4.40;;;;;;;17.42;100.00;97821.94;6212955;28;20243;-59
2023/09/14 02:25:23;;;;;;;4.47;4.03;;;;;;;17.53;100.00;97826.13;6214273;28;20271;-59
2023/09/14 02:28:25;;;;;;;5.33;4.20;;;;;;;17.44;100.00;97825.97;6202387;28;20601;-58
2023/09/14 02:31:27;;;;;;;9.80;4.67;;;;;;;17.38;100.00;97826.28;6217445;28;20779;-59
2023/09/14 02:34:29;;;;;;;5.00;4.30;;;;;;;17.33;100.00;97829.81;6215181;28;20240;-58
2023/09/14 02:37:32;;;;;;;4.30;3.90;;;;;;;17.28;100.00;97832.53;6215093;28;20347;-59
2023/09/14 02:40:36;;;;;;;5.47;4.27;;;;;;;17.25;100.00;97839.31;6217179;28;20228;-59
2023/09/14 02:43:39;;;;;;;5.57;4.50;;;;;;;17.22;100.00;97830.97;6220262;28;20231;-58
2023/09/14 02:46:42;;;;;;;5.73;4.67;;;;;;;17.24;100.00;97837.72;6217409;28;20239;-59
2023/09/14 02:49:45;;;;;;;4.93;4.53;;;;;;;17.27;100.00;97842.50;6216208;28;20317;-58
2023/09/14 02:52:47;;;;;;;4.43;3.67;;;;;;;17.25;100.00;97841.19;6191796;28;20243;-58
2023/09/14 02:55:50;;;;;;;5.63;4.40;;;;;;;17.20;100.00;97844.72;6192879;28;20749;-58
2023/09/14 02:58:54;;;;;;;4.90;4.40;;;;;;;17.24;100.00;97845.78;6199403;28;20229;-59
2023/09/14 03:01:56;;;;;;;4.93;4.40;;;;;;;17.17;100.00;97845.28;6191811;28;20232;-59
2023/09/14 03:04:58;;;;;;;5.47;4.77;;;;;;;17.14;100.00;97853.09;6188705;28;20228;-58
2023/09/14 03:08:01;;;;;;;5.40;4.90;;;;;;;17.14;100.00;97843.16;6190128;28;20233;-58
2023/09/14 03:11:04;;;;;;;5.00;4.50;;;;;;;17.11;100.00;97851.00;6192292;28;20236;-58
2023/09/14 03:14:07;;;;;;;5.63;4.83;;;;;;;17.08;100.00;97840.78;6197541;28;20247;-57
2023/09/14 03:17:10;;;;;;;7.63;4.70;;;;;;;17.02;100.00;97837.31;6187673;28;20239;-57
2023/09/14 03:20:18;;;;;;;5.23;4.53;;;;;;;17.04;100.00;97843.22;6195132;28;20229;-56
2023/09/14 03:23:21;;;;;;;5.43;4.67;;;;;;;16.90;100.00;97826.09;6212587;28;20370;-58
2023/09/14 03:26:27;;;;;;;5.33;4.83;;;;;;;17.02;100.00;97848.06;6191362;28;20237;-58
2023/09/14 03:29:31;;;;;;;5.60;5.10;;;;;;;17.03;100.00;97842.41;6194988;28;20506;-59
2023/09/14 03:32:34;;;;;;;5.47;4.57;;;;;;;17.03;100.00;97847.00;6185381;28;20651;-58
2023/09/14 03:35:36;;;;;;;5.90;4.87;;;;;;;17.04;100.00;97845.91;6189100;28;20616;-56
2023/09/14 03:38:38;;;;;;;5.30;4.67;;;;;;;17.04;100.00;97848.59;6194330;28;20240;-57
2023/09/14 03:41:40;;;;;;;4.40;4.00;;;;;;;17.07;100.00;97849.94;6192410;28;20375;-58
2023/09/14 03:44:45;;;;;;;5.50;4.53;;;;;;;17.02;100.00;97862.34;6193002;28;20228;-57
2023/09/14 03:47:51;;;;;;;5.03;3.73;;;;;;;17.00;100.00;97863.72;6188936;28;20239;-57
2023/09/14 03:50:58;;;;;;;5.60;4.57;;;;;;;17.01;100.00;97859.94;6205793;28;20763;-57
2023/09/14 03:54:01;;;;;;;4.40;4.00;;;;;;;16.99;100.00;97862.91;6219101;28;20742;-58
2023/09/14 03:57:14;;;;;;;5.27;4.27;;;;;;;16.96;100.00;97858.06;6196721;28;20289;-57
2023/09/14 04:00:21;;;;;;;5.60;4.63;;;;;;;17.01;100.00;97866.13;6210316;28;20220;-57
2023/09/14 04:03:23;;;;;;;5.27;4.77;;;;;;;17.02;100.00;97866.91;6199337;28;20235;-57
2023/09/14 04:06:29;;;;;;;6.00;5.13;;;;;;;16.99;100.00;97867.47;6216187;28;20236;-57
2023/09/14 04:09:31;;;;;;;5.17;4.67;;;;;;;16.97;100.00;97872.34;6201817;28;20231;-57
2023/09/14 04:12:33;;;;;;;5.40;4.90;;;;;;;16.93;100.00;97871.28;6217744;28;20235;-57
2023/09/14 04:15:35;;;;;;;6.10;5.50;;;;;;;16.94;100.00;97872.88;6200842;28;20319;-57
2023/09/14 04:18:38;;;;;;;7.87;5.00;;;;;;;16.89;100.00;97879.09;6199234;28;20611;-57
2023/09/14 04:21:43;;;;;;;5.97;5.37;;;;;;;16.85;100.00;97878.06;6220143;28;20235;-57
2023/09/14 04:24:46;;;;;;;6.37;5.30;;;;;;;16.85;100.00;97890.72;6214115;28;20227;-57
2023/09/14 04:27:48;;;;;;;6.00;5.10;;;;;;;16.83;100.00;97884.78;6219052;28;20231;-57
2023/09/14 04:30:54;;;;;;;5.87;5.37;;;;;;;16.84;100.00;97889.09;6204600;28;20718;-56
2023/09/14 04:33:57;;;;;;;5.67;5.17;;;;;;;16.81;100.00;97881.59;6212987;28;20259;-57
2023/09/14 04:37:00;;;;;;;7.47;6.50;;;;;;;16.77;100.00;97892.88;6218739;28;20252;-57
2023/09/14 04:40:07;;;;;;;7.47;6.77;;;;;;;16.75;100.00;97897.75;6202402;28;20247;-57
2023/09/14 04:43:10;;;;;;;6.90;6.20;;;;;;;16.74;100.00;97900.69;6200095;28;20286;-56
2023/09/14 04:46:13;;;;;;;7.23;6.53;;;;;;;16.75;100.00;97903.13;6221536;28;20243;-56
2023/09/14 04:49:20;;;;;;;8.60;7.70;;;;;;;16.75;100.00;97908.50;6201489;28;20242;-56
2023/09/14 04:52:34;;;;;;;8.07;7.27;;;;;;;16.74;100.00;97911.47;6217913;28;20229;-57
2023/09/14 04:55:48;;;;;;;9.53;8.63;;;;;;;16.75;100.00;97908.50;6217317;28;20236;-56
2023/09/14 04:58:51;;;;;;;9.63;8.53;;;;;;;16.72;100.00;97911.75;6201681;28;20229;-56
2023/09/14 05:01:54;;;;;;;8.90;7.90;;;;;;;16.74;100.00;97908.75;6202186;28;20231;-57
2023/09/14 05:05:00;;;;;;;11.20;7.63;;;;;;;16.72;100.00;97906.34;6199816;28;20232;-57
2023/09/14 05:08:02;;;;;;;10.73;7.47;;;;;;;16.75;100.00;97908.50;6202202;28;20318;-56
2023/09/14 05:11:05;;;;;;;10.57;8.37;;;;;;;16.65;100.00;97891.56;6216646;28;20221;-56
2023/09/14 05:14:07;;;;;;;11.43;9.27;;;;;;;16.66;100.00;97887.81;6201792;28;20224;-55
2023/09/14 05:17:11;;;;;;;11.47;8.20;;;;;;;16.68;100.00;97893.72;6220085;28;20327;-56
2023/09/14 05:20:14;;;;;;;9.43;7.77;;;;;;;16.67;100.00;97898.28;6203281;28;20232;-57
2023/09/14 05:23:17;;;;;;;9.27;8.27;;;;;;;16.80;100.00;97914.91;6185539;28;20232;-56
2023/09/14 05:26:20;;;;;;;8.33;7.53;;;;;;;16.75;100.00;97895.06;6216212;28;20236;-56
2023/09/14 05:29:22;;;;;;;8.97;7.93;;;;;;;16.91;100.00;97920.00;6220218;28;20314;-56
2023/09/14 05:32:25;;;;;;;10.60;7.87;;;;;;;16.90;100.00;97921.09;6205552;28;20703;-56
2023/09/14 05:35:27;;;;;;;9.43;7.87;;;;;;;16.97;100.00;97918.09;6223848;28;20284;-56
2023/09/14 05:38:29;;;;;;;9.50;7.87;;;;;;;17.00;100.00;97922.94;6219673;28;20367;-57
2023/09/14 05:41:32;;;;;;;8.23;7.43;;;;;;;17.07;100.00;97934.19;6199760;28;20223;-57
2023/09/14 05:44:34;;;;;;;8.43;7.60;;;;;;;17.07;100.00;97939.56;6216696;28;20698;-56
2023/09/14 05:47:37;;;;;;;8.97;7.90;;;;;;;17.05;100.00;97922.09;6214401;28;20717;-56
2023/09/14 05:50:41;;;;;;;9.57;7.60;;;;;;;17.17;100.00;97936.81;6200920;28;20298;-57
2023/09/14 05:53:44;;;;;;;8.27;7.57;;;;;;;17.20;100.00;97941.66;6201937;28;20713;-57
2023/09/14 05:56:48;;;;;;;8.83;7.80;;;;;;;17.17;100.00;97955.66;6214819;28;20247;-56
2023/09/14 05:59:51;;;;;;;9.03;8.10;;;;;;;17.16;100.00;97953.25;6216780;28;20239;-56
2023/09/14 06:02:53;;;;;;;9.70;8.63;;;;;;;17.15;100.00;97946.25;6220895;28;20237;-56
2023/09/14 06:05:55;;;;;;;9.17;8.27;;;;;;;17.16;100.00;97956.75;6192801;28;20255;-56
2023/09/14 06:08:59;;;;;;;8.43;7.63;;;;;;;17.21;100.00;97962.09;6199286;28;20244;-56
2023/09/14 06:12:02;;;;;;;8.97;8.07;;;;;;;17.23;100.00;97956.44;6225429;28;20323;-56
2023/09/14 06:15:05;;;;;;;10.37;9.27;;;;;;;17.14;100.00;97942.78;6199148;28;20565;-56
2023/09/14 06:18:07;;;;;;;9.40;8.50;;;;;;;17.27;100.00;97958.28;6214579;28;20593;-56
2023/09/14 06:21:09;;;;;;;9.63;8.73;;;;;;;17.30;100.00;97969.59;6215999;28;20220;-56
2023/09/14 06:24:12;;;;;;;12.80;8.63;;;;;;;17.30;100.00;97972.31;6217799;28;20320;-56
2023/09/14 06:27:14;;;;;;;10.13;9.13;;;;;;;17.28;100.00;97978.75;6214111;28;20232;-57
2023/09/14 06:30:16;;;;;;;10.13;8.77;;;;;;;17.29;100.00;97982.28;6216625;28;20306;-56
2023/09/14 06:33:19;;;;;;;10.43;8.47;;;;;;;17.33;100.00;97990.56;6219039;28;20293;-57
2023/09/14 06:36:22;;;;;;;11.13;8.77;;;;;;;17.33;100.00;97982.50;6215374;28;20251;-56
2023/09/14 06:39:25;;;;;;;9.37;8.47;;;;;;;17.31;100.00;97988.16;6217838;28;20228;-55
2023/09/14 06:42:36;;;;;;;12.07;9.33;;;;;;;17.38;100.00;98004.81;6230038;28;20262;-56
2023/09/14 06:46:17;;;;;;;;;;;;;;;;;;;;;
2023/09/14 06:50:15;;;;;;;9.20;8.30;;;;;;;17.30;100.00;97999.22;6213518;28;20271;-57
2023/09/14 06:53:28;;;;;;;9.37;8.33;;;;;;;17.45;100.00;98013.41;6216191;28;20232;-59
2023/09/14 06:56:36;;;;;;;9.40;8.37;;;;;;;17.42;100.00;98018.53;6216408;28;20247;-56
2023/09/14 06:59:39;;;;;;;9.87;8.90;;;;;;;17.45;100.00;98018.00;6216798;28;20394;-59
2023/09/14 07:02:43;;;;;;;8.87;8.00;;;;;;;17.48;100.00;98029.00;6195954;28;20238;-51
2023/09/14 07:05:47;;;;;;;10.70;9.60;;;;;;;17.47;100.00;98034.66;6215805;28;20243;-59
2023/09/14 07:08:53;;;;;;;9.03;8.10;;;;;;;17.46;100.00;98028.47;6199117;28;20236;-56
2023/09/14 07:12:02;;;;;;;8.67;7.83;;;;;;;17.45;100.00;98043.03;6210871;28;20233;-56
2023/09/14 07:15:09;;;;;;;10.10;9.13;;;;;;;17.43;100.00;98044.38;6211275;28;20236;-57
2023/09/14 07:18:30;;;;;;;9.93;8.77;;;;;;;17.47;100.00;98038.16;6214073;28;20216;-57
2023/09/14 07:21:36;;;;;;;10.80;9.77;;;;;;;17.54;100.00;98057.53;6210453;28;20765;-48
2023/09/14 07:24:39;;;;;;;9.90;8.90;;;;;;;17.56;100.00;98046.47;6216062;28;20227;-57
2023/09/14 07:27:47;;;;;;;9.57;8.67;;;;;;;17.61;100.00;98056.44;6216089;28;20243;-57
2023/09/14 07:30:51;;;;;;;10.33;9.20;;;;;;;17.67;100.00;98053.41;6214814;28;20374;-57
2023/09/14 07:33:54;;;;;;;9.77;8.87;;;;;;;17.68;100.00;98054.22;6215471;28;20232;-57
2023/09/14 07:36:56;;;;;;;9.87;8.90;;;;;;;17.78;100.00;98056.88;6216040;28;20272;-57
2023/09/14 07:39:59;;;;;;;10.43;9.43;;;;;;;17.82;100.00;98057.94;6218030;28;20254;-57
2023/09/14 07:43:02;;;;;;;9.77;8.87;;;;;;;17.87;100.00;98066.00;6199505;28;20231;-57
2023/09/14 07:46:05;;;;;;;9.17;8.33;;;;;;;17.87;100.00;98055.22;6202789;28;20235;-57
2023/09/14 07:49:09;;;;;;;9.60;8.57;;;;;;;18.00;100.00;98070.75;6201477;28;20244;-57
2023/09/14 07:52:14;;;;;;;10.07;9.17;;;;;;;18.06;100.00;98076.91;6214925;28;20349;-56
2023/09/14 07:55:17;;;;;;;10.23;9.23;;;;;;;18.01;100.00;98069.66;6220783;28;20283;-58
2023/09/14 07:58:22;;;;;;;9.20;8.27;;;;;;;17.98;100.00;98062.16;6216481;28;20232;-57
2023/09/14 08:01:25;;;;;;;10.60;9.50;;;;;;;18.07;100.00;98081.22;6201300;28;20236;-57
2023/09/14 08:04:27;;;;;;;10.60;9.37;;;;;;;18.11;100.00;98084.16;6220486;28;20227;-57
2023/09/14 08:07:30;;;;;;;8.97;8.17;;;;;;;18.09;100.00;98092.53;6218469;28;20236;-57
2023/09/14 08:10:32;;;;;;;8.70;7.80;;;;;;;18.02;100.00;98090.16;6221787;28;20239;-57
2023/09/14 08:13:34;;;;;;;9.53;8.53;;;;;;;18.04;100.00;98096.09;6222123;28;20236;-57
2023/09/14 08:16:37;;;;;;;10.67;9.63;;;;;;;18.07;100.00;98097.41;6218370;28;20278;-56
2023/09/14 08:19:39;;;;;;;9.17;8.37;;;;;;;18.08;100.00;98101.72;6216749;28;20240;-58
2023/09/14 08:22:42;;;;;;;8.90;7.90;;;;;;;18.13;100.00;98106.25;6218745;28;20243;-56
2023/09/14 08:25:49;;;;;;;8.73;7.93;;;;;;;18.16;100.00;98103.81;6217282;28;20231;-56
2023/09/14 08:29:00;;;;;;;11.50;9.20;;;;;;;18.19;100.00;98105.97;6216590;28;20236;-57
2023/09/14 08:32:03;;;;;;;9.07;8.27;;;;;;;18.26;100.00;98111.03;6220169;28;20827;-56
2023/09/14 08:35:24;;;;;;;9.30;8.40;;;;;;;18.19;100.00;98100.56;6220435;28;20231;-58
2023/09/14 08:38:28;;;;;;;9.77;8.77;;;;;;;18.33;100.00;98119.63;6216648;28;20609;-57
2023/09/14 08:41:40;;;;;;;9.63;8.73;;;;;;;18.39;100.00;98123.06;6218409;28;20235;-57
2023/09/14 08:44:43;;;;;;;8.13;7.27;;;;;;;18.42;100.00;98119.78;6220037;28;20248;-56
2023/09/14 08:47:47;;;;;;;8.30;7.60;;;;;;;18.47;100.00;98119.75;6216919;28;20236;-57
2023/09/14 08:50:52;;;;;;;8.70;7.80;;;;;;;18.52;100.00;98125.94;6218774;28;20725;-58
2023/09/14 08:53:56;;;;;;;8.00;7.20;;;;;;;18.56;100.00;98126.16;6217561;28;20246;-57
2023/09/14 08:57:12;;;;;;;9.37;7.30;;;;;;;18.50;100.00;98128.09;6213774;28;20291;-56
2023/09/14 09:00:15;;;;;;;8.93;8.03;;;;;;;18.49;100.00;98121.09;6217609;28;20232;-57
2023/09/14 09:03:20;;;;;;;7.93;7.13;;;;;;;18.55;100.00;98130.75;6200084;28;20215;-57
2023/09/14 09:06:24;;;;;;;8.53;7.50;;;;;;;18.62;100.00;98122.34;6210634;28;20236;-57
2023/09/14 09:09:28;;;;;;;8.43;7.73;;;;;;;18.67;100.00;98119.63;6199328;28;20243;-58
2023/09/14 09:12:31;;;;;;;7.70;7.00;;;;;;;18.78;100.00;98131.94;6198223;28;20229;-58
2023/09/14 09:15:36;;;;;;;8.10;7.30;;;;;;;18.88;98.04;98127.56;6201168;28;20232;-57
2023/09/14 09:19:02;;;;;;;8.03;7.33;;;;;;;18.91;98.69;98125.06;6215743;28;20226;-57
2023/09/14 09:22:09;;;;;;;8.47;7.63;;;;;;;18.90;97.82;98128.88;6215535;28;20229;-57
2023/09/14 09:25:12;;;;;;;8.40;7.70;;;;;;;18.88;96.64;98124.84;6219182;28;20778;-58
2023/09/14 09:28:15;;;;;;;8.70;7.80;;;;;;;18.99;98.96;98118.25;6219056;28;20236;-58
2023/09/14 09:31:17;;;;;;;9.00;7.10;;;;;;;19.07;98.36;98114.94;6219384;28;20725;-63
2023/09/14 09:34:24;;;;;;;7.40;6.80;;;;;;;19.12;95.39;98109.47;6217004;28;20735;-63
2023/09/14 09:37:34;;;;;;;8.33;7.47;;;;;;;19.24;95.80;98115.28;6219493;28;20243;-63
2023/09/14 09:40:42;;;;;;;6.73;6.23;;;;;;;19.34;94.31;98117.88;6219295;28;20761;-63
2023/09/14 09:43:44;;;;;;;6.47;5.97;;;;;;;19.36;93.59;98124.88;6218931;28;20228;-64
2023/09/14 09:46:47;;;;;;;8.10;7.30;;;;;;;19.34;91.97;98119.75;6200173;28;20898;-65
2023/09/14 09:49:52;;;;;;;8.43;7.57;;;;;;;19.02;92.29;98094.19;6213645;28;20774;-66
2023/09/14 09:52:54;;;;;;;9.57;8.13;;;;;;;19.17;94.37;98122.94;6214532;28;20237;-64
2023/09/14 09:55:57;;;;;;;7.80;7.07;;;;;;;19.16;94.35;98125.91;6217945;28;20239;-58
2023/09/14 09:59:09;;;;;;;7.53;6.83;;;;;;;19.10;94.11;98127.06;6213965;28;20231;-57
2023/09/14 10:02:12;;;;;;;8.17;7.37;;;;;;;19.12;93.69;98128.38;6211284;28;20369;-58
2023/09/14 10:05:14;;;;;;;8.80;7.97;;;;;;;19.12;94.87;98120.28;6216785;28;20578;-57
2023/09/14 10:08:20;;;;;;;9.43;8.57;;;;;;;19.29;91.77;98119.81;6201296;28;20239;-63
2023/09/14 10:11:24;;;;;;;8.30;7.50;;;;;;;19.22;93.64;98128.28;6212939;28;20327;-64
2023/09/14 10:14:28;;;;;;;8.63;7.73;;;;;;;19.17;94.41;98104.03;6215805;28;20881;-58
2023/09/14 10:17:31;;;;;;;8.03;7.33;;;;;;;19.37;95.44;98116.50;6214593;28;20236;-58
2023/09/14 10:20:34;;;;;;;7.90;7.10;;;;;;;19.41;92.44;98116.72;6200089;28;20572;-57
2023/09/14 10:23:37;;;;;;;9.27;7.80;;;;;;;19.46;91.39;98125.59;6198928;28;20718;-58
2023/09/14 10:26:43;;;;;;;8.87;8.07;;;;;;;19.29;89.90;98106.31;6214891;28;20292;-57
2023/09/14 10:29:46;;;;;;;7.47;6.57;;;;;;;19.25;92.66;98107.97;6229342;28;20797;-58
2023/09/14 10:32:52;;;;;;;7.00;6.40;;;;;;;19.47;91.06;98127.19;6217175;28;20239;-56
2023/09/14 10:35:56;;;;;;;6.60;6.10;;;;;;;19.43;92.44;98109.13;6216547;28;20276;-57
2023/09/14 10:39:00;;;;;;;6.67;6.07;;;;;;;19.63;88.19;98117.00;6215240;28;20905;-57
2023/09/14 10:42:07;;;;;;;6.70;6.10;;;;;;;19.61;89.09;98127.31;6214075;28;20224;-58
2023/09/14 10:45:14;;;;;;;6.13;5.63;;;;;;;19.62;86.85;98114.63;6216320;28;20251;-56
2023/09/14 10:48:21;;;;;;;5.73;5.23;;;;;;;19.66;86.06;98121.84;6198553;28;20204;-57
2023/09/14 10:51:24;;;;;;;6.00;5.50;;;;;;;19.66;87.03;98118.34;6213548;28;20732;-56
2023/09/14 10:54:30;;;;;;;5.40;4.90;;;;;;;19.66;86.48;98127.25;6198372;28;20228;-57
2023/09/14 10:57:34;;;;;;;5.10;4.70;;;;;;;19.48;88.00;98098.25;6215199;28;20234;-56
2023/09/14 11:00:38;;;;;;;5.93;5.10;;;;;;;19.46;87.53;98106.66;6215340;28;20690;-57
2023/09/14 11:04:19;;;;;;;5.10;4.60;;;;;;;19.65;89.61;98122.13;6214744;28;20240;-57
2023/09/14 11:07:39;;;;;;;5.47;4.97;;;;;;;19.67;88.82;98119.94;6162550;28;20235;-57
2023/09/14 11:10:58;;;;;;;5.30;4.80;;;;;;;19.77;88.03;98120.63;6161642;28;20246;-58
2023/09/14 11:14:07;;;;;;;5.57;5.07;;;;;;;19.87;86.07;98122.38;6162507;28;20388;-58
2023/09/14 11:17:22;;;;;;;5.70;5.17;;;;;;;19.96;83.89;98120.63;6167832;28;20715;-57
2023/09/14 11:20:25;;;;;;;5.00;4.60;;;;;;;20.01;80.23;98111.66;6167091;28;20237;-43
2023/09/14 11:23:35;;;;;;;4.67;4.27;;;;;;;19.98;83.33;98104.09;6170262;28;20241;-43
2023/09/14 11:26:45;;;;;;;5.70;4.80;;;;;;;20.16;80.93;98106.00;6165062;28;20249;-42
2023/09/14 11:29:51;;;;;;;3.87;3.57;;;;;;;20.26;79.24;98105.06;6167270;28;20260;-42
2023/09/14 11:33:01;;;;;;;5.20;4.70;;;;;;;20.42;81.74;98102.91;6163214;28;20264;-42
2023/09/14 11:36:07;;;;;;;5.27;4.87;;;;;;;20.81;74.04;98102.56;6152610;28;20249;-42
2023/09/14 11:39:14;;;;;;;5.00;4.53;;;;;;;20.67;75.80;98102.50;6170166;28;20300;-41
2023/09/14 11:42:25;;;;;;;5.40;4.90;;;;;;;20.77;74.87;98115.06;6189483;28;20227;-43
2023/09/14 11:45:38;;;;;;;4.80;4.37;;;;;;;20.82;76.34;98113.06;6219847;28;20809;-43
2023/09/14 11:48:45;;;;;;;5.03;4.53;;;;;;;20.75;74.44;98107.25;6219664;28;20298;-42
2023/09/14 11:51:54;;;;;;;4.43;4.03;;;;;;;20.82;74.44;98104.94;6206817;28;20239;-44
2023/09/14 11:54:59;;;;;;;4.43;4.03;;;;;;;20.71;76.53;98100.81;6221174;28;20228;-43
2023/09/14 11:58:01;;;;;;;4.70;4.30;;;;;;;20.56;77.78;98085.66;6218634;28;20239;-42
2023/09/14 12:01:03;;;;;;;4.50;3.97;;;;;;;20.61;78.12;98101.81;6220321;28;20259;-42
2023/09/14 12:04:07;;;;;;;4.70;4.30;;;;;;;20.60;77.61;98088.56;6220388;28;20724;-42
2023/09/14 12:07:11;;;;;;;4.53;3.97;;;;;;;20.80;77.05;98093.63;6220536;28;20236;-42
2023/09/14 12:10:26;;;;;;;4.37;4.00;;;;;;;20.81;73.26;98084.41;6220794;28;20244;-42
2023/09/14 12:13:29;;;;;;;3.93;3.63;;;;;;;20.84;74.41;98094.63;6233137;28;20889;-42
2023/09/14 12:16:32;;;;;;;4.10;3.80;;;;;;;20.82;74.44;98096.81;6215900;28;20286;-42
2023/09/14 12:19:44;;;;;;;4.63;4.23;;;;;;;20.83;71.86;98106.56;6211293;28;20238;-43
2023/09/14 12:22:48;;;;;;;4.60;4.20;;;;;;;20.81;71.43;98103.34;6213032;28;20586;-42
2023/09/14 12:25:53;;;;;;;3.80;3.47;;;;;;;20.89;72.44;98098.38;6215820;28;20234;-42
2023/09/14 12:28:59;;;;;;;3.57;3.27;;;;;;;20.90;71.02;98099.97;6198200;28;20228;-42
2023/09/14 12:32:04;;;;;;;3.57;3.27;;;;;;;20.98;70.17;98085.72;6222182;28;20228;-43
2023/09/14 12:35:16;;;;;;;5.23;3.13;;;;;;;21.19;67.14;98081.53;6214111;28;20238;-43
2023/09/14 12:38:22;;;;;;;3.37;3.13;;;;;;;21.15;66.67;98085.94;6213893;28;20315;-43
2023/09/14 12:41:34;;;;;;;3.70;3.10;;;;;;;21.11;72.39;98088.44;6212814;28;20236;-45
2023/09/14 12:44:37;;;;;;;2.97;2.70;;;;;;;21.10;69.39;98088.75;6214930;28;20270;-42
2023/09/14 12:47:41;;;;;;;3.23;2.73;;;;;;;21.17;68.09;98089.13;6211247;28;20726;-43
2023/09/14 12:50:44;;;;;;;3.40;3.10;;;;;;;21.17;66.92;98099.97;6213150;28;20236;-42
2023/09/14 12:53:46;;;;;;;2.57;2.37;;;;;;;21.11;66.42;98093.06;6220592;28;20235;-43
2023/09/14 12:56:49;;;;;;;3.03;2.73;;;;;;;21.17;65.99;98082.91;6217430;28;20322;-43
2023/09/14 12:59:59;;;;;;;3.57;2.87;;;;;;;21.14;65.38;98092.47;6214752;28;20289;-43
2023/09/14 13:03:08;;;;;;;3.37;2.60;;;;;;;21.11;66.40;98087.63;6219852;28;20238;-43
2023/09/14 13:06:11;;;;;;;3.83;2.83;;;;;;;21.06;70.26;98088.53;6219504;28;20278;-46
2023/09/14 13:09:22;;;;;;;2.93;2.73;;;;;;;21.12;66.12;98089.25;6217524;28;20209;-44
2023/09/14 13:12:29;;;;;;;3.00;2.70;;;;;;;20.97;67.99;98082.19;6216433;28;20702;-45
2023/09/14 13:15:33;;;;;;;3.10;2.90;;;;;;;20.96;68.95;98068.97;6219376;28;20223;-44
2023/09/14 13:18:36;;;;;;;3.27;2.97;;;;;;;20.94;70.18;98071.19;6215462;28;20596;-50
2023/09/14 13:21:39;;;;;;;4.63;2.90;;;;;;;20.91;71.45;98069.06;6217619;28;20420;-49
2023/09/14 13:24:46;;;;;;;5.23;2.87;;;;;;;20.95;72.72;98073.59;6217987;28;20228;-53
2023/09/14 13:27:55;;;;;;;3.30;3.00;;;;;;;20.98;69.81;98062.13;6216998;28;20255;-50
2023/09/14 13:30:58;;;;;;;3.13;2.80;;;;;;;21.00;71.23;98064.56;6218545;28;20238;-53
2023/09/14 13:34:01;;;;;;;3.33;3.03;;;;;;;20.97;70.26;98063.25;6217011;28;20232;-49
2023/09/14 13:37:04;;;;;;;3.40;3.10;;;;;;;20.99;72.08;98066.47;6215849;28;20236;-49
2023/09/14 13:40:19;;;;;;;3.00;2.80;;;;;;;20.96;70.77;98056.22;6216790;28;20270;-51
2023/09/14 13:43:27;;;;;;;2.80;2.60;;;;;;;20.97;72.64;98057.03;6212839;28;20240;-51
2023/09/14 13:46:30;;;;;;;4.03;3.13;;;;;;;20.87;75.80;98058.03;6220095;28;20231;-52
2023/09/14 13:49:33;;;;;;;2.40;2.20;;;;;;;20.78;69.53;98066.03;6198307;28;20761;-52
2023/09/14 13:52:37;;;;;;;3.40;2.67;;;;;;;20.82;66.58;98058.91;6218507;28;20296;-51
2023/09/14 13:55:40;;;;;;;3.03;2.80;;;;;;;20.85;68.28;98047.50;6215783;28;20891;-50
2023/09/14 13:58:42;;;;;;;2.70;2.50;;;;;;;20.94;68.01;98068.47;6219427;28;20401;-50
2023/09/14 14:01:45;;;;;;;3.33;2.30;;;;;;;20.93;71.24;98053.31;6216094;28;20327;-52
2023/09/14 14:04:48;;;;;;;4.47;2.43;;;;;;;20.87;69.35;98058.81;6216767;28;20279;-51
2023/09/14 14:07:53;;;;;;;3.63;2.27;;;;;;;20.91;66.77;98047.41;6218422;28;20240;-53
2023/09/14 14:10:55;;;;;;;2.97;2.10;;;;;;;20.91;66.61;98056.31;6217463;28;20235;-50
2023/09/14 14:13:58;;;;;;;3.87;2.27;;;;;;;20.85;69.49;98049.41;6216004;28;20228;-51
2023/09/14 14:17:00;;;;;;;3.20;2.30;;;;;;;20.73;72.00;98060.69;6220211;28;20635;-42
2023/09/14 14:20:03;;;;;;;2.27;2.03;;;;;;;20.74;67.74;98050.66;6201527;28;20240;-43
2023/09/14 14:23:05;;;;;;;2.93;1.93;;;;;;;20.79;67.15;98040.56;6221635;28;20705;-41
2023/09/14 14:26:08;;;;;;;2.47;2.27;;;;;;;20.90;68.63;98057.44;6217681;28;20310;-43
2023/09/14 14:29:11;;;;;;;2.30;2.10;;;;;;;20.86;69.17;98061.84;6212438;28;20235;-42